Time;durP1;ratioP1;P1;durP2;ratioP2;P2;SDS_P1;SDS_P2;PMS_P1;PMS_P2;Temp;Humidity;BMP_temperature;BMP_pressure;BME280_temperature;BME280_humidity;BME280_pressure;Samples;Min_cycle;Max_cycle;Signal;HPM_P1;HPM_P2
2024/01/23 00:01:50;;;;;;;100.37;35.03;;;-5.50;95.30;;;-6.20;60.99;96105.16;5067586;28;20470;-60
2024/01/23 00:04:19;;;;;;;84.57;30.30;;;-5.50;95.20;;;-6.19;60.56;96106.84;5069329;28;20443;-61
2024/01/23 00:06:46;;;;;;;107.43;31.73;;;-5.50;95.20;;;-6.19;60.22;96111.97;5065310;28;20955;-64
2024/01/23 00:09:14;;;;;;;107.67;33.07;;;-5.50;95.10;;;-6.20;60.55;96104.31;5064924;28;21018;-60
2024/01/23 00:11:41;;;;;;;89.60;30.37;;;-5.50;95.00;;;-6.22;60.27;96098.34;5073340;28;20474;-63
2024/01/23 00:14:09;;;;;;;105.73;31.27;;;-5.50;94.90;;;-6.24;60.31;96103.47;5069621;28;20469;-60
2024/01/23 00:16:36;;;;;;;92.33;31.70;;;-5.50;94.70;;;-6.26;60.01;96097.50;5068153;28;20481;-61
2024/01/23 00:19:03;;;;;;;89.97;31.53;;;-5.50;94.60;;;-6.26;60.20;96102.63;5069114;28;20447;-61
2024/01/23 00:21:32;;;;;;;85.13;30.67;;;-5.60;94.40;;;-6.28;60.17;96101.78;5074285;28;20482;-60
2024/01/23 00:23:59;;;;;;;79.27;29.23;;;-5.60;94.30;;;-6.30;59.84;96095.84;5068838;28;20451;-60
2024/01/23 00:26:26;;;;;;;95.10;31.97;;;-5.60;94.20;;;-6.33;59.76;96091.56;5070043;28;20561;-60
2024/01/23 00:28:54;;;;;;;98.93;31.50;;;-5.60;94.20;;;-6.37;60.37;96094.16;5069403;28;20919;-63
2024/01/23 00:31:21;;;;;;;83.83;30.83;;;-5.60;94.10;;;-6.41;59.50;96093.31;5075573;28;20467;-63
2024/01/23 00:33:48;;;;;;;96.10;29.90;;;-5.70;94.10;;;-6.45;59.83;96085.66;5070159;28;20455;-60
2024/01/23 00:36:16;;;;;;;97.17;29.57;;;-5.70;94.00;;;-6.49;59.80;96077.13;5068952;28;20939;-63
2024/01/23 00:38:45;;;;;;;93.83;29.40;;;-5.80;93.80;;;-6.54;59.29;96077.16;5072134;28;20951;-64
2024/01/23 00:41:12;;;;;;;92.87;31.67;;;-5.80;93.90;;;-6.58;59.57;96070.38;5073304;28;20558;-64
2024/01/23 00:43:39;;;;;;;86.97;32.97;;;-5.80;93.90;;;-6.59;59.28;96073.78;5072634;28;20454;-60
2024/01/23 00:46:07;;;;;;;98.43;32.80;;;-5.90;93.80;;;-6.63;59.40;96072.13;5072858;28;20481;-64
2024/01/23 00:48:34;;;;;;;86.93;32.27;;;-5.90;93.90;;;-6.65;59.54;96078.94;5072715;28;20856;-60
2024/01/23 00:51:01;;;;;;;85.97;32.97;;;-5.90;94.00;;;-6.69;59.65;96067.03;5072833;28;20477;-60
2024/01/23 00:53:29;;;;;;;92.33;30.90;;;-5.90;94.00;;;-6.71;59.65;96069.59;5072878;28;20474;-60
2024/01/23 00:55:58;;;;;;;96.20;30.60;;;-6.00;94.00;;;-6.73;59.54;96066.16;5073387;28;20467;-63
2024/01/23 00:58:25;;;;;;;106.17;31.63;;;-6.00;93.90;;;-6.75;59.25;96067.06;5073232;28;20451;-64
2024/01/23 01:00:53;;;;;;;96.50;32.17;;;-6.00;93.80;;;-6.77;59.52;96068.75;5072400;28;20467;-64
2024/01/23 01:03:20;;;;;;;100.70;31.80;;;-6.10;93.90;;;-6.79;59.34;96065.34;5072636;28;20454;-64
2024/01/23 01:05:47;;;;;;;89.43;32.87;;;-6.10;93.80;;;-6.82;59.63;96065.38;5072354;28;20477;-63
2024/01/23 01:08:15;;;;;;;106.10;34.17;;;-6.10;93.90;;;-6.83;59.69;96058.53;5072434;28;20461;-64
2024/01/23 01:10:42;;;;;;;89.27;32.47;;;-6.10;93.90;;;-6.87;59.85;96053.44;5072690;28;20498;-64
2024/01/23 01:13:11;;;;;;;107.90;34.40;;;-6.10;93.90;;;-6.89;59.84;96057.72;5072283;28;20455;-61
2024/01/23 01:15:38;;;;;;;109.47;36.53;;;-6.20;93.80;;;-6.91;59.49;96045.78;5071998;28;20471;-63
2024/01/23 01:18:07;;;;;;;99.53;33.83;;;-6.20;93.80;;;-6.93;59.41;96053.47;5072071;28;20493;-64
2024/01/23 01:20:35;;;;;;;98.10;31.77;;;-6.20;93.80;;;-6.95;59.40;96051.78;5072121;28;20554;-63
2024/01/23 01:23:02;;;;;;;98.77;32.07;;;-6.20;93.70;;;-6.98;59.32;96039.84;5072421;28;20989;-61
2024/01/23 01:25:29;;;;;;;91.23;32.07;;;-6.20;93.70;;;-7.02;59.46;96035.59;5072183;28;20475;-60
2024/01/23 01:27:59;;;;;;;93.13;34.10;;;-6.30;93.60;;;-7.04;59.40;96032.19;5072000;28;20467;-64
2024/01/23 01:30:28;;;;;;;102.20;33.37;;;-6.30;93.60;;;-7.07;59.23;96040.72;5072120;28;20494;-60
2024/01/23 01:32:55;;;;;;;80.10;30.37;;;-6.30;93.60;;;-7.08;59.17;96039.03;5071991;28;20454;-61
2024/01/23 01:35:23;;;;;;;104.40;33.27;;;-6.40;93.40;;;-7.10;59.00;96037.34;5069553;28;20467;-61
2024/01/23 01:37:50;;;;;;;93.27;32.10;;;-6.30;93.30;;;-7.15;59.53;96037.34;5071783;28;20461;-64
2024/01/23 01:40:17;;;;;;;80.93;32.97;;;-6.40;93.40;;;-7.19;58.90;96035.66;5070340;28;20561;-60
2024/01/23 01:42:45;;;;;;;85.27;32.10;;;-6.40;93.00;;;-7.22;59.20;96031.41;5071850;28;20462;-60
2024/01/23 01:45:12;;;;;;;94.70;31.90;;;-6.40;93.00;;;-7.26;59.00;96027.16;5074629;28;20455;-63
2024/01/23 01:47:42;;;;;;;92.83;30.77;;;-6.50;93.10;;;-7.29;59.01;96029.72;5081653;28;20537;-64
2024/01/23 01:50:12;;;;;;;113.73;31.87;;;-6.50;93.00;;;-7.31;59.01;96022.91;5077210;28;20486;-63
2024/01/23 01:52:41;;;;;;;85.97;32.67;;;-6.50;93.00;;;-7.34;58.85;96028.91;5072230;28;20474;-61
2024/01/23 01:55:09;;;;;;;82.73;29.30;;;-6.60;93.00;;;-7.37;58.97;96021.22;5071359;28;20570;-63
2024/01/23 01:57:37;;;;;;;111.60;33.80;;;-6.60;93.10;;;-7.37;58.94;96021.22;5067307;28;20539;-60
2024/01/23 02:00:06;;;;;;;77.57;32.60;;;-6.60;93.00;;;-7.38;58.67;96019.53;5067012;28;20469;-60
2024/01/23 02:02:33;;;;;;;81.50;32.10;;;-6.60;92.90;;;-7.41;58.70;96010.16;5067278;28;20529;-63
2024/01/23 02:05:02;;;;;;;70.37;28.43;;;-6.60;92.90;;;-7.44;58.87;96011.88;5066985;28;20982;-63
2024/01/23 02:07:30;;;;;;;80.13;30.50;;;-6.70;92.80;;;-7.49;58.42;95999.09;5067544;28;20558;-62
2024/01/23 02:09:57;;;;;;;68.40;26.60;;;-6.70;92.80;;;-7.49;58.40;96005.94;5068049;28;20505;-63
2024/01/23 02:12:24;;;;;;;74.10;29.03;;;-6.70;92.80;;;-7.53;58.50;96001.66;5068214;28;20458;-64
2024/01/23 02:14:51;;;;;;;55.73;26.17;;;-6.70;92.60;;;-7.57;58.65;95998.28;5066855;28;20461;-63
2024/01/23 02:17:19;;;;;;;55.07;26.70;;;-6.80;92.50;;;-7.60;58.69;95998.28;5071177;28;20456;-63
2024/01/23 02:19:46;;;;;;;60.10;25.27;;;-6.80;92.50;;;-7.64;58.71;95997.44;5070926;28;20826;-63
2024/01/23 02:22:15;;;;;;;66.67;28.80;;;-6.80;92.40;;;-7.66;58.25;95991.47;5071343;28;20481;-61
2024/01/23 02:24:43;;;;;;;60.47;28.30;;;-6.90;92.20;;;-7.68;57.93;96003.41;5070988;28;20829;-62
2024/01/23 02:27:11;;;;;;;50.60;26.13;;;-6.90;92.50;;;-7.70;58.33;95991.50;5066891;28;20861;-63
2024/01/23 02:29:38;;;;;;;54.90;25.37;;;-6.90;92.10;;;-7.72;58.32;95993.22;5066551;28;20850;-63
2024/01/23 02:32:06;;;;;;;61.30;27.53;;;-7.00;92.10;;;-7.75;58.18;95986.38;5070670;28;20476;-63
2024/01/23 02:34:33;;;;;;;59.40;25.07;;;-7.00;92.00;;;-7.76;57.74;95982.13;5066687;28;20450;-61
2024/01/23 02:37:01;;;;;;;71.90;27.63;;;-7.00;92.00;;;-7.78;58.04;95971.91;5070437;28;20986;-60
2024/01/23 02:39:28;;;;;;;59.80;26.20;;;-7.00;92.30;;;-7.77;58.30;95981.28;5070526;28;20502;-62
2024/01/23 02:41:57;;;;;;;80.00;28.70;;;-7.00;92.30;;;-7.76;58.24;95982.13;5070302;28;20474;-61
2024/01/23 02:44:24;;;;;;;61.87;25.07;;;-7.00;92.30;;;-7.80;58.15;95970.25;5070387;28;20455;-60
2024/01/23 02:46:52;;;;;;;64.03;25.20;;;-7.00;92.20;;;-7.80;58.37;95967.69;5070576;28;20478;-61
2024/01/23 02:49:19;;;;;;;58.40;27.20;;;-7.00;92.20;;;-7.82;58.06;95962.56;5070660;28;20543;-61
2024/01/23 02:51:47;;;;;;;65.27;26.80;;;-7.00;92.20;;;-7.83;57.91;95952.38;5070114;28;20497;-63
2024/01/23 02:54:14;;;;;;;64.33;26.87;;;-7.10;92.00;;;-7.86;57.95;95950.66;5070504;28;20459;-63
2024/01/23 02:56:41;;;;;;;55.50;24.70;;;-7.10;91.70;;;-7.89;57.42;95949.81;5070129;28;20501;-63
2024/01/23 02:59:10;;;;;;;71.27;27.40;;;-7.10;91.60;;;-7.90;57.99;95948.13;5070414;28;20847;-63
2024/01/23 03:01:37;;;;;;;61.20;25.70;;;-7.10;91.70;;;-7.95;58.06;95941.34;5068968;28;20470;-63
2024/01/23 03:04:05;;;;;;;48.10;21.20;;;-7.10;91.90;;;-7.96;57.70;95939.63;5070469;28;20565;-63
2024/01/23 03:06:33;;;;;;;50.70;22.00;;;-7.20;91.80;;;-8.00;58.40;95937.91;5070146;28;20528;-61
2024/01/23 03:09:00;;;;;;;43.23;20.90;;;-7.20;91.70;;;-8.02;57.69;95938.78;5070475;28;21183;-63
2024/01/23 03:11:27;;;;;;;43.63;21.40;;;-7.20;91.60;;;-8.06;57.95;95934.53;5070052;28;20494;-60
2024/01/23 03:13:55;;;;;;;52.90;21.30;;;-7.20;91.50;;;-8.11;57.78;95926.88;5070301;28;20458;-63
2024/01/23 03:16:24;;;;;;;44.17;21.13;;;-7.30;91.60;;;-8.14;57.95;95930.28;5069935;28;21098;-60
2024/01/23 03:18:51;;;;;;;56.07;21.23;;;-7.30;91.70;;;-8.16;58.36;95926.88;5069904;28;20567;-60
2024/01/23 03:21:18;;;;;;;45.80;21.10;;;-7.30;91.80;;;-8.18;57.94;95917.53;5070471;28;20471;-60
2024/01/23 03:23:45;;;;;;;48.37;22.60;;;-7.40;91.90;;;-8.20;58.40;95909.03;5075768;28;20828;-61
2024/01/23 03:26:13;;;;;;;54.27;23.03;;;-7.40;92.00;;;-8.18;57.88;95922.63;5069775;28;20462;-63
2024/01/23 03:28:40;;;;;;;52.73;22.40;;;-7.40;92.00;;;-8.19;58.23;95914.13;5070145;28;20466;-60
2024/01/23 03:31:07;;;;;;;49.33;22.43;;;-7.40;92.10;;;-8.20;58.10;95899.66;5069790;28;20505;-60
2024/01/23 03:33:36;;;;;;;57.00;20.67;;;-7.40;92.10;;;-8.18;58.28;95899.66;5069782;28;20454;-60
2024/01/23 03:36:04;;;;;;;49.63;22.30;;;-7.40;92.20;;;-8.18;58.20;95895.44;5070063;28;20467;-59
2024/01/23 03:38:31;;;;;;;69.40;22.30;;;-7.40;92.20;;;-8.17;58.31;95893.72;5070222;28;20859;-64
2024/01/23 03:40:58;;;;;;;53.70;25.10;;;-7.40;92.20;;;-8.17;58.99;95891.16;5070435;28;20482;-60
2024/01/23 03:43:26;;;;;;;59.60;23.13;;;-7.40;92.20;;;-8.18;58.48;95897.09;5070009;28;20450;-63
2024/01/23 03:45:53;;;;;;;59.10;22.90;;;-7.40;92.20;;;-8.17;58.43;95893.72;5069465;28;20478;-61
2024/01/23 03:48:20;;;;;;;47.83;23.03;;;-7.40;92.20;;;-8.16;58.60;95890.31;5069517;28;20907;-63
2024/01/23 03:50:49;;;;;;;55.60;23.93;;;-7.40;92.20;;;-8.17;58.55;95886.91;5069063;28;20998;-63
2024/01/23 03:53:16;;;;;;;53.37;23.60;;;-7.40;92.20;;;-8.16;58.10;95882.66;5070153;28;20481;-63
2024/01/23 03:55:44;;;;;;;53.90;24.10;;;-7.40;92.20;;;-8.17;58.41;95888.59;5069168;28;20511;-63
2024/01/23 03:58:11;;;;;;;56.83;24.80;;;-7.40;92.20;;;-8.15;58.54;95886.91;5069862;28;20461;-60
2024/01/23 04:00:39;;;;;;;56.60;24.63;;;-7.30;92.30;;;-8.16;58.56;95883.50;5069670;28;20509;-60
2024/01/23 04:03:06;;;;;;;54.17;26.13;;;-7.40;92.40;;;-8.15;58.58;95876.69;5069480;28;20454;-63
2024/01/23 04:05:33;;;;;;;70.00;25.80;;;-7.40;92.50;;;-8.13;58.68;95877.56;5069501;28;20975;-64
2024/01/23 04:08:02;;;;;;;68.67;25.67;;;-7.30;92.50;;;-8.13;58.23;95877.56;5069656;28;20839;-60
2024/01/23 04:10:29;;;;;;;59.37;24.20;;;-7.30;92.50;;;-8.12;58.51;95881.78;5067621;28;20514;-60
2024/01/23 04:12:57;;;;;;;64.93;23.47;;;-7.30;92.50;;;-8.09;59.02;95880.94;5064893;28;20455;-60
2024/01/23 04:15:26;;;;;;;88.03;31.60;;;-7.30;92.60;;;-8.08;58.94;95886.03;5066864;28;20482;-61
2024/01/23 04:17:55;;;;;;;69.83;29.40;;;-7.30;92.50;;;-8.04;58.95;95882.63;5068434;28;20458;-61
2024/01/23 04:20:22;;;;;;;63.67;26.07;;;-7.30;92.60;;;-8.04;59.21;95866.44;5055808;28;20477;-60
2024/01/23 04:22:49;;;;;;;70.83;27.07;;;-7.30;92.80;;;-8.04;59.01;95879.22;5059683;28;20462;-63
2024/01/23 04:25:18;;;;;;;69.93;27.73;;;-7.30;92.60;;;-8.04;59.22;95879.22;5066059;28;20554;-60
2024/01/23 04:27:46;;;;;;;66.90;26.93;;;-7.30;92.60;;;-8.03;58.91;95875.81;5069461;28;20899;-60
2024/01/23 04:30:14;;;;;;;58.10;24.27;;;-7.20;92.60;;;-8.01;58.11;95879.22;5069493;28;20498;-60
2024/01/23 04:32:44;;;;;;;60.73;25.63;;;-7.20;92.60;;;-8.01;58.43;95874.97;5076239;28;20478;-60
2024/01/23 04:35:13;;;;;;;54.20;25.60;;;-7.20;92.30;;;-8.02;57.96;95875.81;5071136;28;20441;-60
2024/01/23 04:37:40;;;;;;;75.07;26.00;;;-7.20;92.00;;;-8.03;58.39;95881.75;5069212;28;20458;-64
2024/01/23 04:40:09;;;;;;;55.27;23.80;;;-7.20;92.00;;;-8.05;58.02;95873.28;5069455;28;20533;-64
2024/01/23 04:42:39;;;;;;;72.83;25.80;;;-7.20;91.80;;;-8.10;57.97;95869.88;5069465;28;20811;-63
2024/01/23 04:45:08;;;;;;;70.30;26.50;;;-7.30;91.80;;;-8.14;58.13;95866.47;5069320;28;20459;-64
2024/01/23 04:47:35;;;;;;;59.10;25.83;;;-7.30;91.80;;;-8.17;58.01;95879.25;5065594;28;20478;-64
2024/01/23 04:50:03;;;;;;;55.87;24.83;;;-7.30;91.70;;;-8.21;57.69;95871.59;5069248;28;20479;-65
2024/01/23 04:52:30;;;;;;;61.83;25.10;;;-7.40;91.80;;;-8.22;57.96;95875.84;5069493;28;20529;-64
2024/01/23 04:54:58;;;;;;;69.37;26.07;;;-7.40;91.80;;;-8.23;58.33;95873.31;5065035;28;20470;-62
2024/01/23 04:57:31;;;;;;;69.47;25.73;;;-7.40;91.90;;;-8.24;58.40;95879.25;5069279;28;20446;-66
2024/01/23 05:00:00;;;;;;;66.53;25.87;;;-7.40;92.20;;;-8.27;58.45;95872.47;5065783;28;20982;-64
2024/01/23 05:02:27;;;;;;;67.53;23.77;;;-7.50;92.10;;;-8.29;58.46;95875.03;5068384;28;20451;-62
2024/01/23 05:04:55;;;;;;;85.87;25.13;;;-7.50;92.40;;;-8.28;58.78;95878.41;5068643;28;20447;-66
2024/01/23 05:07:22;;;;;;;61.97;24.23;;;-7.50;92.40;;;-8.26;58.56;95874.16;5069207;28;20474;-62
2024/01/23 05:09:49;;;;;;;61.23;23.67;;;-7.50;92.50;;;-8.26;59.29;95873.31;5069339;28;21374;-66
2024/01/23 05:12:16;;;;;;;75.87;24.37;;;-7.40;92.60;;;-8.26;58.83;95873.31;5070873;28;20471;-61
2024/01/23 05:14:44;;;;;;;71.80;23.90;;;-7.50;92.50;;;-8.24;59.13;95876.69;5069065;28;20500;-62
2024/01/23 05:17:12;;;;;;;61.20;24.60;;;-7.50;92.70;;;-8.24;58.98;95876.69;5069397;28;20828;-62
2024/01/23 05:19:40;;;;;;;62.77;24.40;;;-7.40;92.60;;;-8.23;58.96;95869.03;5069871;28;20455;-61
2024/01/23 05:22:07;;;;;;;56.53;23.07;;;-7.40;92.60;;;-8.22;59.04;95865.66;5069221;28;20478;-61
2024/01/23 05:24:35;;;;;;;61.40;24.00;;;-7.40;92.60;;;-8.21;58.81;95859.69;5070286;28;20454;-64
2024/01/23 05:27:02;;;;;;;60.90;24.20;;;-7.40;92.50;;;-8.20;58.74;95858.00;5072044;28;20481;-61
2024/01/23 05:29:30;;;;;;;56.63;21.80;;;-7.40;92.50;;;-8.19;58.47;95850.34;5071013;28;20459;-64
2024/01/23 05:31:57;;;;;;;43.03;21.80;;;-7.40;92.50;;;-8.19;58.17;95854.59;5069851;28;20494;-61
2024/01/23 05:34:26;;;;;;;46.17;21.53;;;-7.40;92.10;;;-8.20;57.44;95845.22;5069703;28;20474;-61
2024/01/23 05:36:53;;;;;;;61.03;25.60;;;-7.40;91.90;;;-8.21;57.70;95840.97;5072134;28;20475;-61
2024/01/23 05:39:20;;;;;;;57.67;25.50;;;-7.40;91.80;;;-8.21;58.06;95840.97;5068029;28;20839;-63
2024/01/23 05:41:48;;;;;;;53.97;24.80;;;-7.40;91.70;;;-8.24;57.80;95836.75;5068107;28;20466;-61
2024/01/23 05:44:15;;;;;;;57.23;24.47;;;-7.40;91.70;;;-8.24;57.40;95836.75;5068212;28;20439;-63
2024/01/23 05:46:43;;;;;;;54.30;22.87;;;-7.40;91.70;;;-8.25;58.18;95837.59;5068310;28;20532;-63
2024/01/23 05:49:10;;;;;;;49.03;24.80;;;-7.40;91.80;;;-8.27;57.88;95833.31;5068181;28;20863;-60
2024/01/23 05:51:39;;;;;;;49.60;22.37;;;-7.50;91.70;;;-8.26;57.90;95837.59;5068127;28;20503;-60
2024/01/23 05:54:06;;;;;;;51.17;23.87;;;-7.50;91.70;;;-8.26;58.13;95837.59;5067591;28;20486;-61
2024/01/23 05:56:34;;;;;;;53.50;22.60;;;-7.50;91.80;;;-8.26;57.83;95827.38;5067623;28;20520;-61
2024/01/23 05:59:02;;;;;;;52.87;22.60;;;-7.50;91.70;;;-8.27;58.42;95828.22;5071695;28;20512;-64
2024/01/23 06:01:29;;;;;;;52.30;26.00;;;-7.50;91.90;;;-8.26;58.01;95833.31;5071296;28;20479;-61
2024/01/23 06:03:56;;;;;;;56.30;25.60;;;-7.50;92.10;;;-8.20;57.97;95832.47;5071709;28;20455;-64
2024/01/23 06:06:24;;;;;;;52.83;22.63;;;-7.40;92.10;;;-8.13;58.16;95831.63;5071963;28;20475;-61
2024/01/23 06:08:53;;;;;;;47.73;23.90;;;-7.40;92.20;;;-8.04;58.14;95840.94;5071522;28;20451;-61
2024/01/23 06:11:20;;;;;;;71.77;25.90;;;-7.30;92.20;;;-8.00;57.99;95838.34;5067487;28;20498;-61
2024/01/23 06:13:47;;;;;;;58.00;26.20;;;-7.30;91.90;;;-7.89;57.27;95847.69;5071842;28;20458;-61
2024/01/23 06:16:15;;;;;;;71.50;27.47;;;-7.20;91.70;;;-7.82;57.55;95849.34;5071420;28;20471;-60
2024/01/23 06:18:42;;;;;;;66.17;28.20;;;-7.10;91.80;;;-7.71;57.56;95855.28;5071442;28;20447;-61
2024/01/23 06:21:09;;;;;;;80.20;30.87;;;-7.00;91.70;;;-7.55;57.17;95853.50;5071176;28;20570;-61
2024/01/23 06:23:37;;;;;;;71.77;31.10;;;-6.90;91.70;;;-7.35;57.06;95862.78;5071806;28;20446;-61
2024/01/23 06:26:05;;;;;;;80.97;29.07;;;-6.70;91.50;;;-7.15;56.93;95867.81;5071655;28;20467;-61
2024/01/23 06:28:33;;;;;;;102.97;33.73;;;-6.50;91.50;;;-6.94;56.68;95866.78;5071071;28;20455;-63
2024/01/23 06:31:00;;;;;;;104.23;33.80;;;-6.30;91.30;;;-6.71;56.52;95870.06;5071003;28;20490;-63
2024/01/23 06:33:27;;;;;;;95.03;33.53;;;-6.10;91.70;;;-6.47;55.72;95877.53;5069843;28;20967;-63
2024/01/23 06:35:55;;;;;;;106.50;36.47;;;-5.90;90.60;;;-6.34;55.54;95879.13;5071906;28;20471;-62
2024/01/23 06:38:22;;;;;;;94.80;31.87;;;-5.80;90.60;;;-6.26;56.06;95882.47;5072645;28;20458;-66
2024/01/23 06:40:49;;;;;;;93.27;31.43;;;-5.60;90.70;;;-6.11;55.45;95889.16;5072021;28;20470;-63
2024/01/23 06:43:18;;;;;;;73.20;28.10;;;-5.50;90.30;;;-6.07;55.45;95883.16;5071262;28;20457;-61
2024/01/23 06:45:45;;;;;;;62.07;26.07;;;-5.40;90.10;;;-5.99;55.31;95881.34;5070992;28;20474;-63
2024/01/23 06:48:12;;;;;;;78.63;25.97;;;-5.30;90.20;;;-5.74;55.54;95881.06;5070784;28;20981;-63
2024/01/23 06:50:40;;;;;;;63.33;26.30;;;-5.10;90.20;;;-5.46;55.42;95871.34;5070448;28;21003;-60
2024/01/23 06:53:07;;;;;;;61.13;26.47;;;-4.90;90.10;;;-5.32;54.87;95878.00;5071194;28;20951;-61
2024/01/23 06:55:34;;;;;;;73.33;28.30;;;-4.70;89.60;;;-5.30;54.70;95874.56;5070762;28;20876;-61
2024/01/23 06:58:01;;;;;;;82.80;29.80;;;-4.60;88.90;;;-5.27;54.32;95874.53;5070477;28;20455;-61
2024/01/23 07:00:30;;;;;;;67.80;28.93;;;-4.60;88.50;;;-5.09;55.49;95858.03;5070568;28;20490;-63
2024/01/23 07:02:57;;;;;;;77.43;28.20;;;-4.40;89.00;;;-4.76;54.20;95848.13;5068947;28;20458;-61
2024/01/23 07:05:25;;;;;;;77.43;33.37;;;-4.10;89.20;;;-4.24;54.21;95840.47;5069958;28;20466;-62
2024/01/23 07:07:52;;;;;;;73.23;29.67;;;-3.60;88.60;;;-3.68;53.88;95842.88;5070083;28;20462;-62
2024/01/23 07:10:19;;;;;;;66.53;28.23;;;-3.10;87.50;;;-3.03;53.56;95837.22;5070487;28;20473;-62
2024/01/23 07:12:47;;;;;;;84.80;37.07;;;-2.40;87.30;;;-2.38;52.42;95830.56;5070178;28;20581;-61
2024/01/23 07:15:14;;;;;;;106.20;41.10;;;-1.80;85.50;;;-1.84;51.64;95824.03;5069807;28;20470;-63
2024/01/23 07:17:43;;;;;;;96.37;39.77;;;-1.20;83.90;;;-1.27;51.58;95827.59;5070881;28;20451;-63
2024/01/23 07:20:11;;;;;;;94.67;39.20;;;-0.60;83.60;;;-0.61;51.30;95835.09;5071515;28;20855;-61
2024/01/23 07:22:38;;;;;;;80.43;35.93;;;0.10;84.50;;;0.14;50.60;95839.50;5070202;28;20498;-61
2024/01/23 07:25:07;;;;;;;90.40;39.83;;;0.80;83.10;;;0.80;44.01;95847.53;5070498;28;20447;-63
2024/01/23 07:27:34;;;;;;;86.03;39.13;;;1.50;72.20;;;1.32;45.40;95862.88;5069911;28;20816;-62
2024/01/23 07:30:02;;;;;;;99.37;38.67;;;2.10;70.20;;;1.75;46.23;95860.31;5069702;28;20971;-61
2024/01/23 07:32:29;;;;;;;104.17;38.87;;;2.50;69.60;;;2.12;46.87;95851.88;5068656;28;20486;-61
2024/01/23 07:34:58;;;;;;;94.60;40.30;;;2.90;72.70;;;2.63;44.96;95848.84;5070346;28;20455;-63
2024/01/23 07:37:25;;;;;;;78.07;37.37;;;3.30;68.80;;;3.07;46.22;95845.19;5070113;28;20454;-63
2024/01/23 07:39:52;;;;;;;100.17;39.60;;;3.70;70.50;;;3.42;44.85;95851.34;5069789;28;20443;-63
2024/01/23 07:42:20;;;;;;;89.87;40.20;;;4.10;69.60;;;3.73;41.69;95847.28;5070070;28;20458;-63
2024/01/23 07:44:47;;;;;;;81.53;37.47;;;4.30;63.90;;;3.92;43.63;95853.28;5069845;28;20795;-62
2024/01/23 07:47:14;;;;;;;90.33;38.70;;;4.40;65.90;;;4.13;40.75;95843.56;5069301;28;20493;-63
2024/01/23 07:49:42;;;;;;;82.93;38.87;;;4.60;62.60;;;4.30;42.48;95850.53;5069950;28;20454;-63
2024/01/23 07:52:10;;;;;;;96.37;37.80;;;4.70;63.30;;;4.53;42.26;95858.94;5069520;28;21011;-63
2024/01/23 07:54:38;;;;;;;82.50;38.23;;;4.90;63.30;;;4.76;41.79;95856.94;5070132;28;20534;-63
2024/01/23 07:57:05;;;;;;;83.73;37.67;;;5.10;62.40;;;4.98;40.99;95852.25;5072474;28;20471;-63
2024/01/23 07:59:33;;;;;;;80.63;38.10;;;5.40;61.00;;;5.26;40.81;95856.00;5069637;28;20450;-63
2024/01/23 08:02:00;;;;;;;84.80;39.33;;;5.60;61.00;;;5.52;40.89;95848.53;5068386;28;20471;-63
2024/01/23 08:04:27;;;;;;;82.47;38.83;;;5.80;60.70;;;5.80;39.70;95844.38;5069863;28;20562;-64
2024/01/23 08:06:55;;;;;;;80.80;39.50;;;6.10;59.10;;;6.02;38.49;95841.41;5069477;28;20467;-63
2024/01/23 08:09:24;;;;;;;77.77;40.40;;;6.30;56.70;;;6.24;38.41;95841.00;5069938;28;20481;-63
2024/01/23 08:11:52;;;;;;;82.47;38.77;;;6.50;56.60;;;6.47;37.84;95847.50;5070265;28;20506;-62
2024/01/23 08:14:20;;;;;;;82.43;40.80;;;6.80;56.30;;;6.76;37.92;95832.69;5069444;28;20459;-64
2024/01/23 08:16:48;;;;;;;83.53;39.90;;;7.00;56.20;;;7.00;38.04;95837.34;5069532;28;20467;-62
2024/01/23 08:19:15;;;;;;;91.07;44.63;;;7.20;55.60;;;7.28;37.29;95836.50;5069969;28;20451;-63
2024/01/23 08:21:42;;;;;;;104.60;45.23;;;7.50;56.00;;;7.58;37.55;95845.16;5069482;28;20471;-63
2024/01/23 08:24:10;;;;;;;100.40;44.97;;;7.70;55.60;;;7.80;37.57;95845.44;5069480;28;20458;-62
2024/01/23 08:26:39;;;;;;;108.07;46.00;;;8.00;55.50;;;8.00;36.73;95835.47;5069285;28;20499;-64
2024/01/23 08:29:07;;;;;;;99.30;47.60;;;8.20;54.10;;;8.21;36.72;95833.19;5069533;28;20527;-64
2024/01/23 08:31:35;;;;;;;92.70;46.10;;;8.40;54.70;;;8.42;36.07;95836.19;5068822;28;21013;-64
2024/01/23 08:34:02;;;;;;;106.43;49.83;;;8.60;53.60;;;8.61;35.54;95831.41;5068090;28;20530;-64
2024/01/23 08:36:29;;;;;;;118.87;53.47;;;8.80;53.00;;;8.80;35.58;95830.16;5069419;28;20848;-64
2024/01/23 08:38:57;;;;;;;111.97;52.70;;;8.90;52.10;;;8.98;34.14;95841.16;5069167;28;20947;-63
2024/01/23 08:41:24;;;;;;;103.63;51.90;;;9.10;51.10;;;9.23;34.81;95836.84;5069290;28;20479;-64
2024/01/23 08:43:53;;;;;;;126.03;56.00;;;9.30;52.00;;;9.43;34.45;95838.06;5068984;28;21033;-63
2024/01/23 08:46:21;;;;;;;115.97;56.57;;;9.50;51.50;;;9.59;34.78;95832.53;5068759;28;21377;-62
2024/01/23 08:48:49;;;;;;;120.60;54.70;;;9.70;50.90;;;9.65;33.80;95843.47;5069151;28;20451;-63
2024/01/23 08:51:16;;;;;;;112.60;52.73;;;9.80;49.70;;;9.72;33.45;95835.97;5068748;28;20471;-66
2024/01/23 08:53:43;;;;;;;110.30;49.13;;;9.90;49.30;;;9.83;33.21;95837.81;5069378;28;20450;-63
2024/01/23 08:56:11;;;;;;;94.50;49.07;;;10.00;48.20;;;9.93;33.15;95837.97;5070472;28;20556;-62
2024/01/23 08:58:38;;;;;;;102.67;48.40;;;10.00;48.10;;;9.99;32.57;95835.78;5073158;28;20951;-62
2024/01/23 09:01:07;;;;;;;108.63;51.50;;;10.10;47.00;;;10.10;32.89;95832.34;5072422;28;20474;-64
2024/01/23 09:03:34;;;;;;;103.00;50.20;;;10.20;47.60;;;10.21;32.57;95827.13;5072234;28;20451;-65
2024/01/23 09:06:04;;;;;;;112.63;48.37;;;10.30;46.90;;;10.28;32.67;95827.50;5072696;28;20780;-63
2024/01/23 09:08:31;;;;;;;111.23;53.10;;;10.40;47.00;;;10.33;32.46;95822.78;5072334;28;20462;-63
2024/01/23 09:10:59;;;;;;;105.80;54.30;;;10.50;46.80;;;10.42;31.92;95820.41;5072660;28;20463;-61
2024/01/23 09:13:30;;;;;;;120.57;56.10;;;10.50;46.80;;;10.54;31.87;95808.97;5072552;28;20494;-64
2024/01/23 09:15:57;;;;;;;112.63;54.50;;;10.60;46.50;;;10.70;31.31;95803.38;5072254;28;20486;-61
2024/01/23 09:18:26;;;;;;;102.97;51.67;;;10.70;45.60;;;10.84;31.68;95795.25;5072695;28;20472;-64
2024/01/23 09:20:56;;;;;;;103.97;53.50;;;10.90;46.20;;;10.98;31.38;95799.44;5072453;28;20467;-64
2024/01/23 09:23:23;;;;;;;107.40;54.60;;;11.00;46.00;;;11.13;31.38;95805.31;5072586;28;20450;-63
2024/01/23 09:25:50;;;;;;;117.27;53.70;;;11.20;45.70;;;11.27;31.12;95796.31;5072134;28;20472;-62
2024/01/23 09:28:18;;;;;;;122.17;54.17;;;11.30;45.10;;;11.39;31.19;95795.34;5072056;28;20454;-65
2024/01/23 09:30:45;;;;;;;127.77;59.07;;;11.40;45.30;;;11.37;29.29;95785.91;5071604;28;21030;-64
2024/01/23 09:33:12;;;;;;;117.70;57.23;;;11.40;42.00;;;11.18;30.15;95792.63;5071460;28;20923;-64
2024/01/23 09:35:41;;;;;;;121.10;57.73;;;11.30;43.20;;;11.05;30.11;95784.84;5071708;28;20975;-62
2024/01/23 09:38:08;;;;;;;132.87;58.13;;;11.20;43.30;;;10.93;30.70;95788.44;5071965;28;20459;-64
2024/01/23 09:40:36;;;;;;;121.30;55.87;;;11.00;43.20;;;10.88;31.01;95786.16;5072028;28;20843;-65
2024/01/23 09:43:03;;;;;;;133.57;61.43;;;11.00;43.80;;;10.83;30.45;95783.06;5072007;28;20463;-63
2024/01/23 09:45:30;;;;;;;122.03;55.27;;;10.90;43.30;;;10.91;30.62;95775.41;5072116;28;20471;-64
2024/01/23 09:47:58;;;;;;;132.60;58.97;;;10.90;43.90;;;11.02;29.12;95765.84;5074961;28;20454;-62
2024/01/23 09:50:27;;;;;;;146.47;65.93;;;11.00;42.00;;;11.00;29.54;95768.59;5071578;28;21006;-64
2024/01/23 09:52:56;;;;;;;153.93;67.03;;;11.00;42.50;;;11.04;30.95;95766.53;5071711;28;20872;-63
2024/01/23 09:55:23;;;;;;;145.00;66.90;;;11.00;44.20;;;11.13;30.82;95764.00;5071798;28;20553;-64
2024/01/23 09:57:50;;;;;;;154.17;70.33;;;11.10;45.10;;;11.25;30.45;95762.22;5071457;28;20454;-62
2024/01/23 10:00:19;;;;;;;157.97;66.47;;;11.20;44.10;;;11.35;30.55;95756.22;5071869;28;20467;-63
2024/01/23 10:02:47;;;;;;;163.17;69.57;;;11.30;43.90;;;11.41;28.83;95761.81;5071405;28;20455;-64
2024/01/23 10:05:16;;;;;;;149.50;65.07;;;11.40;41.50;;;11.29;30.14;95757.53;5072557;28;20554;-63
2024/01/23 10:07:43;;;;;;;136.23;66.50;;;11.30;43.00;;;11.26;30.60;95752.50;5071573;28;20450;-64